SAOU/LUQ METAR and TAF weather

Enter ICAO airport designator
Station Type Date Time Source
SAOU METAR 2018/12/14 03:35 UTC NOAA

SAOU 140335Z 09019G41KT 9999 FEW035 FEW045 21/14 Q1006 RMK LTG OBS NE


Station Type Date Time Source
SAOU Decoded METAR 2018/12/14 03:35 UTC NOAA

San Luis Aerodrome, Argentina (SAOU) 33-16S 066-21W 713M
Dec 13, 2018 - 10:35 PM EST / 2018.12.14 0335 UTC
Wind: from the E (090 degrees) at 22 MPH (19 KT) gusting to 47 MPH (41 KT):0
Visibility: greater than 7 mile(s):0
Sky conditions: mostly clear
Weather: Lightning observed
Temperature: 69 F (21 C)
Dew Point: 57 F (14 C)
Relative Humidity: 64%
Pressure (altimeter): 29.71 in. Hg (1006 hPa)
ob: SAOU 140335Z 09019G41KT 9999 FEW035 FEW045 21/14 Q1006 RMK LTG OBS NE
cycle: 3

Station Type Date Time Source
SAOU TAF 2018/10/15 06:45 UTC NOAA

TAF SAOU 150500Z 1506/1606 34015KT CAVOK TN15/1509Z TX27/1519Z


Example: see airport list